sensor_id;sensor_type;location;lat;lon;timestamp;P1;durP1;ratioP1;P2;durP2;ratioP2
76379;SDS011;65201;21.060;105.826;2023-03-11T03:02:26;48.87;;;29.80;;
76379;SDS011;65201;21.060;105.826;2023-03-11T03:04:57;46.55;;;28.90;;
76379;SDS011;65201;21.060;105.826;2023-03-11T03:07:24;46.90;;;30.10;;
76379;SDS011;65201;21.060;105.826;2023-03-11T03:09:50;46.80;;;29.27;;
76379;SDS011;65201;21.060;105.826;2023-03-11T03:12:16;41.92;;;28.58;;
76379;SDS011;65201;21.060;105.826;2023-03-11T03:14:42;44.57;;;27.40;;
76379;SDS011;65201;21.060;105.826;2023-03-11T03:17:08;42.05;;;27.00;;
76379;SDS011;65201;21.060;105.826;2023-03-11T03:19:34;46.92;;;27.48;;
76379;SDS011;65201;21.060;105.826;2023-03-11T03:22:00;42.22;;;28.15;;
76379;SDS011;65201;21.060;105.826;2023-03-11T03:24:26;40.00;;;27.50;;
76379;SDS011;65201;21.060;105.826;2023-03-11T03:26:52;38.55;;;26.38;;
76379;SDS011;65201;21.060;105.826;2023-03-11T03:29:18;38.20;;;26.75;;
76379;SDS011;65201;21.060;105.826;2023-03-11T03:31:44;37.33;;;25.58;;
76379;SDS011;65201;21.060;105.826;2023-03-11T03:34:10;39.17;;;26.15;;
76379;SDS011;65201;21.060;105.826;2023-03-11T03:36:36;38.70;;;24.73;;
76379;SDS011;65201;21.060;105.826;2023-03-11T03:39:02;34.25;;;24.63;;
76379;SDS011;65201;21.060;105.826;2023-03-11T03:41:28;37.30;;;25.02;;
76379;SDS011;65201;21.060;105.826;2023-03-11T03:43:54;35.60;;;24.70;;
76379;SDS011;65201;21.060;105.826;2023-03-11T03:46:21;37.38;;;25.10;;
76379;SDS011;65201;21.060;105.826;2023-03-11T03:48:47;37.93;;;24.47;;
76379;SDS011;65201;21.060;105.826;2023-03-11T03:51:13;35.30;;;24.70;;
76379;SDS011;65201;21.060;105.826;2023-03-11T03:53:39;36.22;;;23.30;;
76379;SDS011;65201;21.060;105.826;2023-03-11T03:56:06;34.72;;;24.15;;
76379;SDS011;65201;21.060;105.826;2023-03-11T03:58:33;37.45;;;24.08;;
76379;SDS011;65201;21.060;105.826;2023-03-11T04:00:59;33.47;;;23.93;;
76379;SDS011;65201;21.060;105.826;2023-03-11T04:03:25;37.13;;;23.73;;
76379;SDS011;65201;21.060;105.826;2023-03-11T04:05:51;38.03;;;23.65;;
76379;SDS011;65201;21.060;105.826;2023-03-11T04:08:17;33.65;;;24.10;;
76379;SDS011;65201;21.060;105.826;2023-03-11T04:10:44;35.83;;;22.52;;
76379;SDS011;65201;21.060;105.826;2023-03-11T04:13:10;33.23;;;22.57;;
76379;SDS011;65201;21.060;105.826;2023-03-11T04:15:36;34.80;;;23.05;;
76379;SDS011;65201;21.060;105.826;2023-03-11T04:18:03;34.90;;;22.60;;
76379;SDS011;65201;21.060;105.826;2023-03-11T04:20:29;35.17;;;22.73;;
76379;SDS011;65201;21.060;105.826;2023-03-11T04:22:55;30.02;;;21.35;;
76379;SDS011;65201;21.060;105.826;2023-03-11T04:25:21;31.73;;;21.80;;
76379;SDS011;65201;21.060;105.826;2023-03-11T04:27:47;33.25;;;22.52;;
76379;SDS011;65201;21.060;105.826;2023-03-11T04:30:16;31.40;;;22.08;;
76379;SDS011;65201;21.060;105.826;2023-03-11T04:32:42;34.78;;;22.67;;
76379;SDS011;65201;21.060;105.826;2023-03-11T04:35:08;38.83;;;21.63;;
76379;SDS011;65201;21.060;105.826;2023-03-11T04:37:34;29.73;;;21.80;;
76379;SDS011;65201;21.060;105.826;2023-03-11T04:40:00;31.08;;;21.95;;
76379;SDS011;65201;21.060;105.826;2023-03-11T04:42:26;32.55;;;21.17;;
76379;SDS011;65201;21.060;105.826;2023-03-11T04:44:52;30.50;;;21.77;;
76379;SDS011;65201;21.060;105.826;2023-03-11T04:47:18;34.85;;;22.42;;
76379;SDS011;65201;21.060;105.826;2023-03-11T04:49:46;30.58;;;21.40;;
76379;SDS011;65201;21.060;105.826;2023-03-11T04:52:12;33.15;;;22.40;;
76379;SDS011;65201;21.060;105.826;2023-03-11T04:54:38;31.35;;;21.73;;
76379;SDS011;65201;21.060;105.826;2023-03-11T04:57:04;31.25;;;21.83;;
76379;SDS011;65201;21.060;105.826;2023-03-11T04:59:30;28.33;;;21.27;;
76379;SDS011;65201;21.060;105.826;2023-03-11T05:01:56;29.73;;;19.88;;
76379;SDS011;65201;21.060;105.826;2023-03-11T05:04:22;28.85;;;20.80;;
76379;SDS011;65201;21.060;105.826;2023-03-11T05:06:48;31.13;;;20.08;;
76379;SDS011;65201;21.060;105.826;2023-03-11T05:09:17;30.08;;;19.70;;
76379;SDS011;65201;21.060;105.826;2023-03-11T05:11:43;30.17;;;20.13;;
76379;SDS011;65201;21.060;105.826;2023-03-11T05:14:09;30.15;;;19.48;;
76379;SDS011;65201;21.060;105.826;2023-03-11T05:16:35;27.98;;;19.50;;
76379;SDS011;65201;21.060;105.826;2023-03-11T05:19:01;29.40;;;18.77;;
76379;SDS011;65201;21.060;105.826;2023-03-11T05:21:47;28.63;;;18.77;;
76379;SDS011;65201;21.060;105.826;2023-03-11T05:24:13;30.27;;;20.02;;
76379;SDS011;65201;21.060;105.826;2023-03-11T05:26:39;27.30;;;19.75;;
76379;SDS011;65201;21.060;105.826;2023-03-11T05:29:05;33.25;;;19.95;;
76379;SDS011;65201;21.060;105.826;2023-03-11T05:31:31;32.22;;;18.95;;
76379;SDS011;65201;21.060;105.826;2023-03-11T05:33:57;28.67;;;18.90;;
76379;SDS011;65201;21.060;105.826;2023-03-11T05:36:23;28.80;;;19.88;;
76379;SDS011;65201;21.060;105.826;2023-03-11T05:38:49;26.80;;;18.63;;
76379;SDS011;65201;21.060;105.826;2023-03-11T05:41:17;27.83;;;19.50;;
76379;SDS011;65201;21.060;105.826;2023-03-11T05:43:44;30.08;;;18.50;;
76379;SDS011;65201;21.060;105.826;2023-03-11T05:46:10;24.50;;;17.93;;
76379;SDS011;65201;21.060;105.826;2023-03-11T05:48:37;25.52;;;17.73;;
76379;SDS011;65201;21.060;105.826;2023-03-11T05:51:09;25.67;;;18.48;;
76379;SDS011;65201;21.060;105.826;2023-03-11T05:53:35;26.58;;;18.35;;
76379;SDS011;65201;21.060;105.826;2023-03-11T05:56:02;34.65;;;18.90;;
76379;SDS011;65201;21.060;105.826;2023-03-11T05:58:28;28.13;;;17.53;;
76379;SDS011;65201;21.060;105.826;2023-03-11T06:00:55;25.42;;;17.88;;
76379;SDS011;65201;21.060;105.826;2023-03-11T06:03:21;26.83;;;17.67;;
76379;SDS011;65201;21.060;105.826;2023-03-11T06:05:48;25.90;;;17.98;;
76379;SDS011;65201;21.060;105.826;2023-03-11T06:08:14;31.65;;;18.30;;
76379;SDS011;65201;21.060;105.826;2023-03-11T06:10:44;30.87;;;18.13;;
76379;SDS011;65201;21.060;105.826;2023-03-11T06:13:10;34.92;;;19.35;;
76379;SDS011;65201;21.060;105.826;2023-03-11T06:15:36;30.02;;;19.95;;
76379;SDS011;65201;21.060;105.826;2023-03-11T06:18:03;29.15;;;19.30;;
76379;SDS011;65201;21.060;105.826;2023-03-11T06:20:30;30.02;;;20.30;;
76379;SDS011;65201;21.060;105.826;2023-03-11T06:22:56;32.13;;;21.27;;
76379;SDS011;65201;21.060;105.826;2023-03-11T06:25:22;34.80;;;21.52;;
76379;SDS011;65201;21.060;105.826;2023-03-11T06:27:49;30.85;;;21.27;;
76379;SDS011;65201;21.060;105.826;2023-03-11T06:30:16;30.48;;;21.15;;
76379;SDS011;65201;21.060;105.826;2023-03-11T06:32:42;30.50;;;22.20;;
76379;SDS011;65201;21.060;105.826;2023-03-11T06:35:09;33.23;;;22.23;;
76379;SDS011;65201;21.060;105.826;2023-03-11T06:37:35;38.50;;;22.50;;
76379;SDS011;65201;21.060;105.826;2023-03-11T06:40:02;33.10;;;21.50;;
76379;SDS011;65201;21.060;105.826;2023-03-11T06:42:29;32.70;;;22.73;;
76379;SDS011;65201;21.060;105.826;2023-03-11T06:44:55;32.67;;;21.83;;
76379;SDS011;65201;21.060;105.826;2023-03-11T06:47:21;30.63;;;20.90;;
76379;SDS011;65201;21.060;105.826;2023-03-11T06:49:57;30.58;;;21.33;;
76379;SDS011;65201;21.060;105.826;2023-03-11T06:52:23;34.60;;;22.30;;
76379;SDS011;65201;21.060;105.826;2023-03-11T06:54:49;30.95;;;22.85;;
76379;SDS011;65201;21.060;105.826;2023-03-11T06:57:15;34.33;;;23.47;;
76379;SDS011;65201;21.060;105.826;2023-03-11T06:59:41;38.30;;;23.45;;
76379;SDS011;65201;21.060;105.826;2023-03-11T07:02:09;33.83;;;24.05;;
76379;SDS011;65201;21.060;105.826;2023-03-11T07:04:37;31.88;;;23.38;;
76379;SDS011;65201;21.060;105.826;2023-03-11T07:07:03;35.42;;;24.27;;
76379;SDS011;65201;21.060;105.826;2023-03-11T07:09:29;32.07;;;22.40;;
76379;SDS011;65201;21.060;105.826;2023-03-11T07:12:05;35.67;;;24.73;;
76379;SDS011;65201;21.060;105.826;2023-03-11T07:14:31;32.90;;;24.33;;
76379;SDS011;65201;21.060;105.826;2023-03-11T07:16:58;37.40;;;23.10;;
76379;SDS011;65201;21.060;105.826;2023-03-11T07:19:24;31.50;;;23.30;;
76379;SDS011;65201;21.060;105.826;2023-03-11T07:21:50;31.73;;;23.83;;
76379;SDS011;65201;21.060;105.826;2023-03-11T07:24:16;31.65;;;23.85;;
76379;SDS011;65201;21.060;105.826;2023-03-11T07:26:42;30.48;;;23.58;;
76379;SDS011;65201;21.060;105.826;2023-03-11T07:29:08;33.55;;;23.25;;
76379;SDS011;65201;21.060;105.826;2023-03-11T07:31:35;30.73;;;23.10;;
76379;SDS011;65201;21.060;105.826;2023-03-11T07:34:02;31.23;;;22.95;;
76379;SDS011;65201;21.060;105.826;2023-03-11T07:36:28;30.10;;;23.27;;
76379;SDS011;65201;21.060;105.826;2023-03-11T07:38:55;31.95;;;23.35;;
76379;SDS011;65201;21.060;105.826;2023-03-11T07:41:25;35.00;;;22.40;;
76379;SDS011;65201;21.060;105.826;2023-03-11T07:43:55;32.40;;;22.70;;
76379;SDS011;65201;21.060;105.826;2023-03-11T07:46:21;28.77;;;22.40;;
76379;SDS011;65201;21.060;105.826;2023-03-11T07:48:48;30.08;;;22.10;;
76379;SDS011;65201;21.060;105.826;2023-03-11T07:51:16;31.33;;;22.70;;
76379;SDS011;65201;21.060;105.826;2023-03-11T07:53:42;33.08;;;23.30;;
76379;SDS011;65201;21.060;105.826;2023-03-11T07:56:09;29.77;;;21.90;;
76379;SDS011;65201;21.060;105.826;2023-03-11T07:58:36;29.50;;;23.02;;
76379;SDS011;65201;21.060;105.826;2023-03-11T08:01:06;28.58;;;22.42;;
76379;SDS011;65201;21.060;105.826;2023-03-11T08:03:33;29.08;;;21.27;;
76379;SDS011;65201;21.060;105.826;2023-03-11T08:05:59;27.63;;;21.08;;
76379;SDS011;65201;21.060;105.826;2023-03-11T08:08:25;31.33;;;22.27;;
76379;SDS011;65201;21.060;105.826;2023-03-11T08:10:52;28.00;;;22.58;;
76379;SDS011;65201;21.060;105.826;2023-03-11T08:13:18;27.92;;;20.70;;
76379;SDS011;65201;21.060;105.826;2023-03-11T08:15:45;27.40;;;21.25;;
76379;SDS011;65201;21.060;105.826;2023-03-11T08:18:11;26.17;;;19.47;;
76379;SDS011;65201;21.060;105.826;2023-03-11T08:20:39;27.80;;;20.23;;
76379;SDS011;65201;21.060;105.826;2023-03-11T08:23:05;27.40;;;20.23;;
76379;SDS011;65201;21.060;105.826;2023-03-11T08:25:31;28.67;;;20.17;;
76379;SDS011;65201;21.060;105.826;2023-03-11T08:27:57;26.60;;;20.48;;
76379;SDS011;65201;21.060;105.826;2023-03-11T08:30:23;25.90;;;19.53;;
76379;SDS011;65201;21.060;105.826;2023-03-11T08:32:49;27.83;;;20.15;;
76379;SDS011;65201;21.060;105.826;2023-03-11T08:35:15;25.75;;;20.45;;
76379;SDS011;65201;21.060;105.826;2023-03-11T08:37:41;25.73;;;19.92;;
76379;SDS011;65201;21.060;105.826;2023-03-11T08:40:09;24.30;;;19.57;;
76379;SDS011;65201;21.060;105.826;2023-03-11T08:42:35;28.48;;;20.77;;
76379;SDS011;65201;21.060;105.826;2023-03-11T08:45:01;25.70;;;19.35;;
76379;SDS011;65201;21.060;105.826;2023-03-11T08:47:27;24.90;;;19.48;;
76379;SDS011;65201;21.060;105.826;2023-03-11T08:49:54;25.13;;;18.70;;
76379;SDS011;65201;21.060;105.826;2023-03-11T08:52:20;27.67;;;19.47;;
76379;SDS011;65201;21.060;105.826;2023-03-11T08:54:46;26.48;;;19.92;;
76379;SDS011;65201;21.060;105.826;2023-03-11T08:57:12;26.52;;;19.92;;
76379;SDS011;65201;21.060;105.826;2023-03-11T08:59:38;27.75;;;19.42;;
76379;SDS011;65201;21.060;105.826;2023-03-11T09:02:04;25.17;;;19.17;;
76379;SDS011;65201;21.060;105.826;2023-03-11T09:04:30;25.17;;;19.30;;
76379;SDS011;65201;21.060;105.826;2023-03-11T09:06:56;27.77;;;19.77;;
76379;SDS011;65201;21.060;105.826;2023-03-11T09:09:22;24.48;;;19.42;;
76379;SDS011;65201;21.060;105.826;2023-03-11T09:11:48;27.48;;;20.52;;
76379;SDS011;65201;21.060;105.826;2023-03-11T09:14:14;23.53;;;19.07;;
76379;SDS011;65201;21.060;105.826;2023-03-11T09:16:40;23.50;;;18.88;;
76379;SDS011;65201;21.060;105.826;2023-03-11T09:19:06;25.40;;;20.00;;
76379;SDS011;65201;21.060;105.826;2023-03-11T09:21:33;23.58;;;19.15;;
76379;SDS011;65201;21.060;105.826;2023-03-11T09:23:59;27.23;;;19.77;;
76379;SDS011;65201;21.060;105.826;2023-03-11T09:26:25;24.88;;;18.90;;
76379;SDS011;65201;21.060;105.826;2023-03-11T09:28:51;25.33;;;18.98;;
76379;SDS011;65201;21.060;105.826;2023-03-11T09:31:17;22.80;;;18.63;;
76379;SDS011;65201;21.060;105.826;2023-03-11T09:33:43;26.92;;;19.50;;
76379;SDS011;65201;21.060;105.826;2023-03-11T09:36:11;28.43;;;18.97;;
76379;SDS011;65201;21.060;105.826;2023-03-11T09:38:37;23.80;;;19.33;;
76379;SDS011;65201;21.060;105.826;2023-03-11T09:46:45;28.38;;;21.00;;
76379;SDS011;65201;21.060;105.826;2023-03-11T09:51:42;27.83;;;21.67;;
76379;SDS011;65201;21.060;105.826;2023-03-11T09:54:11;26.02;;;20.63;;
76379;SDS011;65201;21.060;105.826;2023-03-11T09:56:38;30.30;;;22.05;;
76379;SDS011;65201;21.060;105.826;2023-03-11T09:59:12;28.02;;;22.23;;
76379;SDS011;65201;21.060;105.826;2023-03-11T10:01:43;29.17;;;21.97;;
76379;SDS011;65201;21.060;105.826;2023-03-11T10:04:21;30.48;;;22.15;;
76379;SDS011;65201;21.060;105.826;2023-03-11T10:06:48;32.42;;;23.02;;
76379;SDS011;65201;21.060;105.826;2023-03-11T10:11:49;35.63;;;23.70;;
76379;SDS011;65201;21.060;105.826;2023-03-11T10:14:20;32.00;;;23.53;;
76379;SDS011;65201;21.060;105.826;2023-03-11T10:27:08;35.83;;;24.23;;
76379;SDS011;65201;21.060;105.826;2023-03-11T10:32:16;32.80;;;23.27;;
76379;SDS011;65201;21.060;105.826;2023-03-11T10:34:48;32.03;;;24.02;;
76379;SDS011;65201;21.060;105.826;2023-03-11T10:37:17;30.87;;;23.80;;
76379;SDS011;65201;21.060;105.826;2023-03-11T10:39:47;32.47;;;23.10;;
76379;SDS011;65201;21.060;105.826;2023-03-11T10:42:15;35.58;;;25.40;;
76379;SDS011;65201;21.060;105.826;2023-03-11T10:44:41;40.50;;;26.77;;
76379;SDS011;65201;21.060;105.826;2023-03-11T10:47:18;38.10;;;26.52;;
76379;SDS011;65201;21.060;105.826;2023-03-11T10:49:45;36.27;;;25.20;;
76379;SDS011;65201;21.060;105.826;2023-03-11T10:52:12;43.25;;;25.70;;
76379;SDS011;65201;21.060;105.826;2023-03-11T10:54:45;38.08;;;25.92;;
76379;SDS011;65201;21.060;105.826;2023-03-11T10:59:48;37.53;;;24.88;;
76379;SDS011;65201;21.060;105.826;2023-03-11T11:04:44;43.70;;;24.60;;
76379;SDS011;65201;21.060;105.826;2023-03-11T11:07:29;39.58;;;25.63;;
76379;SDS011;65201;21.060;105.826;2023-03-11T11:10:11;37.10;;;24.50;;
76379;SDS011;65201;21.060;105.826;2023-03-11T11:13:00;37.13;;;24.98;;
76379;SDS011;65201;21.060;105.826;2023-03-11T11:18:13;38.20;;;23.80;;
76379;SDS011;65201;21.060;105.826;2023-03-11T11:20:40;35.67;;;24.08;;
76379;SDS011;65201;21.060;105.826;2023-03-11T11:23:24;44.60;;;25.30;;
76379;SDS011;65201;21.060;105.826;2023-03-11T11:25:55;37.20;;;25.58;;
76379;SDS011;65201;21.060;105.826;2023-03-11T11:28:21;48.33;;;24.80;;
76379;SDS011;65201;21.060;105.826;2023-03-11T11:30:57;39.60;;;24.55;;
76379;SDS011;65201;21.060;105.826;2023-03-11T11:33:31;39.03;;;24.27;;
76379;SDS011;65201;21.060;105.826;2023-03-11T11:36:01;38.92;;;24.38;;
76379;SDS011;65201;21.060;105.826;2023-03-11T11:38:28;40.30;;;24.67;;
76379;SDS011;65201;21.060;105.826;2023-03-11T11:40:55;36.47;;;23.77;;
76379;SDS011;65201;21.060;105.826;2023-03-11T11:46:03;42.72;;;24.48;;
76379;SDS011;65201;21.060;105.826;2023-03-11T11:48:32;40.35;;;24.20;;
76379;SDS011;65201;21.060;105.826;2023-03-11T11:51:01;36.00;;;24.70;;
76379;SDS011;65201;21.060;105.826;2023-03-11T11:55:53;37.92;;;24.52;;
76379;SDS011;65201;21.060;105.826;2023-03-11T11:58:20;36.20;;;23.85;;
76379;SDS011;65201;21.060;105.826;2023-03-11T12:00:55;40.70;;;24.23;;
76379;SDS011;65201;21.060;105.826;2023-03-11T12:03:33;37.40;;;24.67;;
76379;SDS011;65201;21.060;105.826;2023-03-11T12:06:07;40.33;;;25.40;;
76379;SDS011;65201;21.060;105.826;2023-03-11T12:08:38;43.85;;;26.33;;
76379;SDS011;65201;21.060;105.826;2023-03-11T12:11:27;34.80;;;25.05;;
76379;SDS011;65201;21.060;105.826;2023-03-11T12:13:59;42.42;;;27.08;;
76379;SDS011;65201;21.060;105.826;2023-03-11T12:24:20;47.15;;;28.55;;
76379;SDS011;65201;21.060;105.826;2023-03-11T12:26:52;39.42;;;27.35;;
76379;SDS011;65201;21.060;105.826;2023-03-11T12:29:23;42.10;;;30.05;;
76379;SDS011;65201;21.060;105.826;2023-03-11T12:31:49;41.47;;;29.47;;
76379;SDS011;65201;21.060;105.826;2023-03-11T12:34:19;47.03;;;30.15;;
76379;SDS011;65201;21.060;105.826;2023-03-11T12:36:46;50.60;;;28.65;;
76379;SDS011;65201;21.060;105.826;2023-03-11T12:41:44;49.85;;;28.67;;
76379;SDS011;65201;21.060;105.826;2023-03-11T12:49:31;42.50;;;28.20;;
76379;SDS011;65201;21.060;105.826;2023-03-11T12:54:28;40.25;;;27.92;;
76379;SDS011;65201;21.060;105.826;2023-03-11T13:07:08;37.03;;;26.93;;
76379;SDS011;65201;21.060;105.826;2023-03-11T13:09:37;42.80;;;26.75;;
76379;SDS011;65201;21.060;105.826;2023-03-11T13:12:31;41.38;;;26.85;;
76379;SDS011;65201;21.060;105.826;2023-03-11T13:15:12;41.15;;;26.02;;
76379;SDS011;65201;21.060;105.826;2023-03-11T13:17:35;35.33;;;25.65;;
76379;SDS011;65201;21.060;105.826;2023-03-11T13:20:01;38.47;;;26.10;;
76379;SDS011;65201;21.060;105.826;2023-03-11T13:25:29;36.63;;;25.23;;
76379;SDS011;65201;21.060;105.826;2023-03-11T13:28:02;36.08;;;24.90;;
76379;SDS011;65201;21.060;105.826;2023-03-11T13:30:32;38.78;;;25.17;;
76379;SDS011;65201;21.060;105.826;2023-03-11T13:33:21;34.60;;;25.53;;
76379;SDS011;65201;21.060;105.826;2023-03-11T13:40:41;34.83;;;24.33;;
76379;SDS011;65201;21.060;105.826;2023-03-11T13:46:20;32.30;;;22.93;;
76379;SDS011;65201;21.060;105.826;2023-03-11T13:48:48;32.13;;;23.98;;
76379;SDS011;65201;21.060;105.826;2023-03-11T13:51:26;36.17;;;24.55;;
76379;SDS011;65201;21.060;105.826;2023-03-11T13:53:56;34.80;;;24.15;;
76379;SDS011;65201;21.060;105.826;2023-03-11T13:56:28;34.72;;;23.63;;
76379;SDS011;65201;21.060;105.826;2023-03-11T13:59:13;31.50;;;24.40;;
76379;SDS011;65201;21.060;105.826;2023-03-11T14:01:52;32.45;;;23.48;;
76379;SDS011;65201;21.060;105.826;2023-03-11T14:04:26;33.50;;;23.63;;
76379;SDS011;65201;21.060;105.826;2023-03-11T14:06:52;34.10;;;24.20;;
76379;SDS011;65201;21.060;105.826;2023-03-11T14:09:19;33.30;;;24.70;;
76379;SDS011;65201;21.060;105.826;2023-03-11T14:11:46;32.47;;;24.30;;
76379;SDS011;65201;21.060;105.826;2023-03-11T14:16:57;34.25;;;24.80;;
76379;SDS011;65201;21.060;105.826;2023-03-11T14:19:25;33.42;;;25.00;;
76379;SDS011;65201;21.060;105.826;2023-03-11T14:21:53;36.28;;;24.83;;
76379;SDS011;65201;21.060;105.826;2023-03-11T14:24:24;32.90;;;23.20;;
76379;SDS011;65201;21.060;105.826;2023-03-11T14:26:50;37.15;;;23.67;;
76379;SDS011;65201;21.060;105.826;2023-03-11T14:29:27;35.60;;;25.20;;
76379;SDS011;65201;21.060;105.826;2023-03-11T14:31:55;35.13;;;23.77;;
76379;SDS011;65201;21.060;105.826;2023-03-11T14:34:22;33.00;;;24.55;;
76379;SDS011;65201;21.060;105.826;2023-03-11T14:36:58;33.07;;;23.63;;
76379;SDS011;65201;21.060;105.826;2023-03-11T14:39:26;35.35;;;24.58;;
76379;SDS011;65201;21.060;105.826;2023-03-11T14:42:03;35.42;;;24.73;;
76379;SDS011;65201;21.060;105.826;2023-03-11T14:44:32;32.50;;;24.30;;
76379;SDS011;65201;21.060;105.826;2023-03-11T14:47:10;30.88;;;23.77;;
76379;SDS011;65201;21.060;105.826;2023-03-11T14:49:38;32.03;;;23.13;;
76379;SDS011;65201;21.060;105.826;2023-03-11T14:52:07;31.90;;;23.85;;
76379;SDS011;65201;21.060;105.826;2023-03-11T14:54:33;35.28;;;24.13;;
76379;SDS011;65201;21.060;105.826;2023-03-11T14:57:04;32.13;;;22.75;;
76379;SDS011;65201;21.060;105.826;2023-03-11T14:59:31;33.60;;;23.40;;
76379;SDS011;65201;21.060;105.826;2023-03-11T15:04:43;28.73;;;22.27;;
76379;SDS011;65201;21.060;105.826;2023-03-11T15:07:09;29.08;;;20.38;;
76379;SDS011;65201;21.060;105.826;2023-03-11T15:09:37;31.90;;;21.65;;
76379;SDS011;65201;21.060;105.826;2023-03-11T15:12:04;28.25;;;21.75;;
76379;SDS011;65201;21.060;105.826;2023-03-11T15:14:31;28.67;;;22.67;;
76379;SDS011;65201;21.060;105.826;2023-03-11T15:19:42;28.75;;;21.02;;
76379;SDS011;65201;21.060;105.826;2023-03-11T15:24:57;27.73;;;20.50;;
76379;SDS011;65201;21.060;105.826;2023-03-11T15:27:33;26.43;;;18.83;;
76379;SDS011;65201;21.060;105.826;2023-03-11T15:30:00;25.17;;;20.00;;
76379;SDS011;65201;21.060;105.826;2023-03-11T15:32:42;26.17;;;20.00;;
76379;SDS011;65201;21.060;105.826;2023-03-11T15:37:38;25.55;;;20.05;;
76379;SDS011;65201;21.060;105.826;2023-03-11T15:42:42;26.58;;;19.60;;
76379;SDS011;65201;21.060;105.826;2023-03-11T15:45:15;22.92;;;18.90;;
76379;SDS011;65201;21.060;105.826;2023-03-11T15:47:42;24.83;;;19.77;;
76379;SDS011;65201;21.060;105.826;2023-03-11T15:50:26;24.80;;;19.73;;
76379;SDS011;65201;21.060;105.826;2023-03-11T15:52:53;24.27;;;18.77;;
76379;SDS011;65201;21.060;105.826;2023-03-11T15:55:19;25.02;;;19.08;;
76379;SDS011;65201;21.060;105.826;2023-03-11T15:57:46;24.35;;;18.58;;
76379;SDS011;65201;21.060;105.826;2023-03-11T16:00:22;29.15;;;18.90;;
76379;SDS011;65201;21.060;105.826;2023-03-11T16:02:48;26.77;;;17.92;;
76379;SDS011;65201;21.060;105.826;2023-03-11T16:05:16;24.10;;;18.40;;
76379;SDS011;65201;21.060;105.826;2023-03-11T16:07:46;23.83;;;18.60;;
76379;SDS011;65201;21.060;105.826;2023-03-11T16:10:13;27.38;;;18.40;;
76379;SDS011;65201;21.060;105.826;2023-03-11T16:12:39;30.88;;;19.08;;
76379;SDS011;65201;21.060;105.826;2023-03-11T16:15:15;24.90;;;18.55;;
76379;SDS011;65201;21.060;105.826;2023-03-11T16:17:43;24.37;;;18.60;;
76379;SDS011;65201;21.060;105.826;2023-03-11T16:20:09;22.50;;;17.33;;
76379;SDS011;65201;21.060;105.826;2023-03-11T16:22:38;27.27;;;18.50;;
76379;SDS011;65201;21.060;105.826;2023-03-11T16:25:04;22.73;;;17.33;;
76379;SDS011;65201;21.060;105.826;2023-03-11T16:27:33;24.30;;;18.15;;
76379;SDS011;65201;21.060;105.826;2023-03-11T16:29:59;24.67;;;17.73;;
76379;SDS011;65201;21.060;105.826;2023-03-11T16:32:25;23.75;;;18.40;;
76379;SDS011;65201;21.060;105.826;2023-03-11T16:34:51;22.20;;;17.50;;
76379;SDS011;65201;21.060;105.826;2023-03-11T16:37:17;22.33;;;17.02;;
76379;SDS011;65201;21.060;105.826;2023-03-11T16:39:46;26.15;;;17.40;;
76379;SDS011;65201;21.060;105.826;2023-03-11T16:42:13;22.30;;;17.03;;
76379;SDS011;65201;21.060;105.826;2023-03-11T16:44:45;22.65;;;17.08;;
76379;SDS011;65201;21.060;105.826;2023-03-11T16:47:11;24.05;;;17.08;;
76379;SDS011;65201;21.060;105.826;2023-03-11T16:49:37;25.27;;;17.98;;
76379;SDS011;65201;21.060;105.826;2023-03-11T16:52:03;24.88;;;18.92;;
76379;SDS011;65201;21.060;105.826;2023-03-11T16:54:29;23.25;;;18.00;;
76379;SDS011;65201;21.060;105.826;2023-03-11T16:56:55;23.38;;;17.52;;
76379;SDS011;65201;21.060;105.826;2023-03-11T16:59:21;21.85;;;17.10;;
76379;SDS011;65201;21.060;105.826;2023-03-11T17:01:47;24.13;;;17.77;;
76379;SDS011;65201;21.060;105.826;2023-03-11T17:04:13;23.80;;;18.50;;
76379;SDS011;65201;21.060;105.826;2023-03-11T17:06:39;25.50;;;18.58;;
76379;SDS011;65201;21.060;105.826;2023-03-11T17:09:05;27.17;;;20.50;;
76379;SDS011;65201;21.060;105.826;2023-03-11T17:11:31;30.45;;;20.33;;
76379;SDS011;65201;21.060;105.826;2023-03-11T17:13:58;29.27;;;21.33;;
76379;SDS011;65201;21.060;105.826;2023-03-11T17:16:24;30.27;;;22.35;;
76379;SDS011;65201;21.060;105.826;2023-03-11T17:18:50;33.13;;;22.42;;
76379;SDS011;65201;21.060;105.826;2023-03-11T17:21:17;33.97;;;23.60;;
76379;SDS011;65201;21.060;105.826;2023-03-11T17:23:43;30.23;;;23.15;;
76379;SDS011;65201;21.060;105.826;2023-03-11T17:26:10;32.83;;;23.93;;
76379;SDS011;65201;21.060;105.826;2023-03-11T17:28:36;32.58;;;24.48;;
76379;SDS011;65201;21.060;105.826;2023-03-11T17:31:04;34.55;;;25.05;;
76379;SDS011;65201;21.060;105.826;2023-03-11T17:33:32;31.58;;;23.50;;
76379;SDS011;65201;21.060;105.826;2023-03-11T17:35:59;34.58;;;23.67;;
76379;SDS011;65201;21.060;105.826;2023-03-11T17:38:25;31.70;;;23.87;;
76379;SDS011;65201;21.060;105.826;2023-03-11T17:40:53;40.35;;;25.40;;
76379;SDS011;65201;21.060;105.826;2023-03-11T17:43:19;36.47;;;24.73;;
76379;SDS011;65201;21.060;105.826;2023-03-11T17:45:45;32.25;;;23.80;;
76379;SDS011;65201;21.060;105.826;2023-03-11T17:48:11;37.85;;;25.25;;
76379;SDS011;65201;21.060;105.826;2023-03-11T17:50:38;32.83;;;25.97;;
76379;SDS011;65201;21.060;105.826;2023-03-11T17:53:04;37.58;;;25.23;;
76379;SDS011;65201;21.060;105.826;2023-03-11T17:55:30;39.80;;;25.55;;
76379;SDS011;65201;21.060;105.826;2023-03-11T17:57:56;37.20;;;24.80;;
76379;SDS011;65201;21.060;105.826;2023-03-11T18:00:22;36.13;;;25.45;;
76379;SDS011;65201;21.060;105.826;2023-03-11T18:02:48;37.47;;;25.07;;
76379;SDS011;65201;21.060;105.826;2023-03-11T18:05:18;36.60;;;26.48;;
76379;SDS011;65201;21.060;105.826;2023-03-11T18:07:45;36.35;;;24.75;;
76379;SDS011;65201;21.060;105.826;2023-03-11T18:10:11;38.75;;;25.23;;
76379;SDS011;65201;21.060;105.826;2023-03-11T18:12:37;37.28;;;26.25;;
76379;SDS011;65201;21.060;105.826;2023-03-11T18:15:04;39.77;;;25.90;;
76379;SDS011;65201;21.060;105.826;2023-03-11T18:17:35;38.47;;;25.38;;
76379;SDS011;65201;21.060;105.826;2023-03-11T18:20:01;37.15;;;25.25;;
76379;SDS011;65201;21.060;105.826;2023-03-11T18:22:27;36.25;;;24.52;;
76379;SDS011;65201;21.060;105.826;2023-03-11T18:24:53;30.45;;;23.88;;
76379;SDS011;65201;21.060;105.826;2023-03-11T18:27:19;35.35;;;24.23;;
76379;SDS011;65201;21.060;105.826;2023-03-11T18:29:45;38.75;;;23.42;;
76379;SDS011;65201;21.060;105.826;2023-03-11T18:32:11;30.13;;;22.33;;
76379;SDS011;65201;21.060;105.826;2023-03-11T18:34:37;31.95;;;22.40;;